Time;durP1;ratioP1;P1;durP2;ratioP2;P2;SDS_P1;SDS_P2;PMS_P1;PMS_P2;Temp;Humidity;BMP_temperature;BMP_pressure;BME280_temperature;BME280_humidity;BME280_pressure;Samples;Min_cycle;Max_cycle;Signal;HPM_P1;HPM_P2
2023/03/31 00:02:21;;;;;;;27.60;5.72;;;12.50;86.70;;;;;;5023009;28;20386;-75
2023/03/31 00:04:53;;;;;;;22.83;5.07;;;12.40;87.00;;;;;;5009853;28;20013;-75
2023/03/31 00:07:22;;;;;;;19.75;3.88;;;12.40;87.20;;;;;;5006218;28;20486;-75
2023/03/31 00:09:48;;;;;;;22.38;5.10;;;12.40;87.30;;;;;;5006555;28;20038;-76
2023/03/31 00:12:15;;;;;;;20.70;4.18;;;12.30;87.40;;;;;;5008441;28;20036;-76
2023/03/31 00:14:42;;;;;;;22.05;5.05;;;12.30;87.80;;;;;;5012589;28;20250;-75
2023/03/31 00:17:09;;;;;;;16.20;3.83;;;12.20;88.00;;;;;;5014725;28;20041;-75
2023/03/31 00:19:35;;;;;;;19.67;4.88;;;12.10;88.20;;;;;;5013088;28;20046;-75
2023/03/31 00:22:04;;;;;;;17.85;4.20;;;12.10;88.30;;;;;;5019276;28;20065;-76
2023/03/31 00:24:31;;;;;;;19.48;4.53;;;12.10;88.60;;;;;;5009424;28;20695;-76
2023/03/31 00:26:58;;;;;;;17.75;3.97;;;12.10;88.80;;;;;;5007962;28;20470;-76
2023/03/31 00:29:24;;;;;;;16.85;3.70;;;12.10;88.90;;;;;;5009164;28;20747;-76
2023/03/31 00:31:50;;;;;;;15.02;3.25;;;12.00;88.90;;;;;;5011168;28;20412;-75
2023/03/31 00:34:15;;;;;;;19.98;4.60;;;11.90;89.00;;;;;;5010332;28;20030;-76
2023/03/31 00:36:46;;;;;;;17.65;3.70;;;11.90;89.00;;;;;;5009260;28;20041;-75
2023/03/31 00:39:13;;;;;;;20.75;4.18;;;11.90;89.10;;;;;;5007728;28;20579;-75
2023/03/31 00:41:40;;;;;;;16.40;3.83;;;11.90;89.00;;;;;;4999069;28;20057;-76
2023/03/31 00:44:28;;;;;;;17.65;3.67;;;11.90;89.00;;;;;;5010994;28;20046;-76
2023/03/31 00:47:11;;;;;;;17.50;3.63;;;11.80;89.10;;;;;;5006434;28;20054;-76
2023/03/31 00:49:43;;;;;;;18.25;3.85;;;11.80;89.20;;;;;;5022748;28;20054;-75
2023/03/31 00:52:36;;;;;;;20.30;4.68;;;11.70;89.40;;;;;;5004148;28;20041;-75
2023/03/31 00:55:07;;;;;;;16.10;4.75;;;11.80;89.30;;;;;;5005945;28;20032;-75
2023/03/31 00:57:38;;;;;;;23.65;4.35;;;11.70;89.40;;;;;;5012419;28;20034;-75
2023/03/31 01:00:14;;;;;;;20.38;4.13;;;11.70;89.40;;;;;;5009653;28;20080;-75
2023/03/31 01:02:51;;;;;;;21.65;4.72;;;11.60;89.60;;;;;;5019996;28;20042;-76
2023/03/31 01:05:23;;;;;;;20.52;4.45;;;11.60;89.60;;;;;;5009545;28;20018;-75
2023/03/31 01:07:51;;;;;;;21.83;4.00;;;11.70;89.60;;;;;;5012934;28;20598;-74
2023/03/31 01:10:17;;;;;;;19.13;3.58;;;11.60;89.60;;;;;;5010084;28;20875;-76
2023/03/31 01:12:50;;;;;;;18.13;3.78;;;11.70;89.60;;;;;;5013193;28;20046;-76
2023/03/31 01:15:15;;;;;;;17.65;3.50;;;11.60;89.50;;;;;;5004803;28;20108;-76
2023/03/31 01:17:46;;;;;;;17.20;3.83;;;11.60;89.50;;;;;;5004679;28;20060;-76
2023/03/31 01:20:31;;;;;;;14.57;3.38;;;11.60;89.40;;;;;;5007350;28;20116;-75
2023/03/31 01:23:06;;;;;;;16.63;3.45;;;11.60;89.50;;;;;;5009938;28;20641;-76
2023/03/31 01:25:41;;;;;;;17.90;3.80;;;11.60;89.50;;;;;;5014233;28;20049;-75
2023/03/31 01:28:34;;;;;;;15.65;3.58;;;11.60;89.60;;;;;;5007269;28;20130;-76
2023/03/31 01:31:09;;;;;;;18.60;3.58;;;11.60;89.40;;;;;;5017177;28;20104;-75
2023/03/31 01:34:02;;;;;;;15.38;3.47;;;11.60;89.40;;;;;;5006711;28;20121;-76
2023/03/31 01:37:06;;;;;;;16.98;4.03;;;11.60;89.40;;;;;;5007244;28;20045;-76
2023/03/31 01:39:43;;;;;;;16.15;4.05;;;11.60;89.50;;;;;;5010858;28;20033;-76
2023/03/31 01:42:33;;;;;;;14.05;3.67;;;11.60;89.50;;;;;;5013254;28;20447;-75
2023/03/31 01:45:26;;;;;;;17.58;3.85;;;11.60;89.50;;;;;;5008821;28;20129;-76
2023/03/31 01:48:07;;;;;;;22.02;4.10;;;11.60;89.50;;;;;;5003302;28;20042;-75
2023/03/31 01:50:42;;;;;;;16.30;3.55;;;11.60;89.40;;;;;;5006709;28;20018;-75
2023/03/31 01:53:15;;;;;;;15.82;3.60;;;11.60;89.30;;;;;;5006579;28;20061;-76
2023/03/31 01:56:00;;;;;;;16.23;4.20;;;11.60;89.40;;;;;;5001299;28;20092;-76
2023/03/31 01:58:56;;;;;;;17.25;4.15;;;11.60;89.30;;;;;;5007336;28;20032;-75
2023/03/31 02:01:28;;;;;;;;;;;11.60;89.30;;;;;;5007011;28;20038;-76
2023/03/31 02:04:27;;;;;;;16.23;3.25;;;11.60;89.30;;;;;;5014587;28;19909;-76
2023/03/31 02:07:06;;;;;;;16.30;3.65;;;11.60;89.40;;;;;;5005599;28;20034;-75
2023/03/31 02:09:36;;;;;;;20.08;3.78;;;11.50;89.50;;;;;;4995332;28;20575;-76
2023/03/31 02:12:09;;;;;;;16.38;4.30;;;11.50;89.50;;;;;;5004006;28;20450;-75
2023/03/31 02:14:38;;;;;;;10.40;3.42;;;11.50;89.40;;;;;;5005018;28;20051;-75
2023/03/31 02:17:07;;;;;;;14.38;4.05;;;11.50;89.50;;;;;;5010036;28;20046;-75
2023/03/31 02:19:39;;;;;;;12.98;3.80;;;11.60;89.40;;;;;;5006227;28;20561;-75
2023/03/31 02:22:07;;;;;;;13.00;3.65;;;11.50;89.30;;;;;;5005509;28;20149;-75
2023/03/31 02:24:35;;;;;;;15.30;3.90;;;11.50;89.30;;;;;;5020245;28;20454;-75
2023/03/31 02:27:09;;;;;;;12.32;3.63;;;11.50;89.20;;;;;;5018523;28;20088;-75
2023/03/31 02:29:35;;;;;;;12.75;3.75;;;11.50;88.90;;;;;;5007418;28;20495;-75
2023/03/31 02:32:22;;;;;;;12.52;2.92;;;11.50;88.80;;;;;;5004840;28;20502;-75
2023/03/31 02:34:48;;;;;;;9.95;2.80;;;11.50;88.60;;;;;;5005789;28;20075;-75
2023/03/31 02:37:14;;;;;;;17.25;3.63;;;11.50;88.50;;;;;;5005055;28;20046;-75
2023/03/31 02:39:44;;;;;;;13.57;3.30;;;11.50;88.40;;;;;;5008843;28;20030;-75
2023/03/31 02:42:10;;;;;;;12.48;2.85;;;11.50;88.30;;;;;;5001377;28;20666;-75
2023/03/31 02:44:37;;;;;;;12.63;2.90;;;11.50;88.20;;;;;;5005609;28;20079;-75
2023/03/31 02:47:09;;;;;;;10.65;2.60;;;11.50;88.30;;;;;;5003468;28;20065;-74
2023/03/31 02:49:39;;;;;;;10.27;2.47;;;11.50;88.20;;;;;;4992557;28;20025;-74
2023/03/31 02:52:26;;;;;;;7.25;1.95;;;11.40;88.20;;;;;;5005511;28;20110;-75
2023/03/31 02:55:02;;;;;;;7.57;2.30;;;11.40;88.30;;;;;;5007340;28;20117;-74
2023/03/31 02:57:34;;;;;;;6.30;1.85;;;11.40;88.20;;;;;;5007158;28;20037;-74
2023/03/31 03:00:09;;;;;;;4.85;1.35;;;11.40;88.10;;;;;;5005446;28;20030;-74
2023/03/31 03:02:41;;;;;;;7.35;1.90;;;11.30;88.00;;;;;;5004773;28;20445;-74
2023/03/31 03:05:18;;;;;;;4.45;1.45;;;11.20;88.20;;;;;;5003459;28;20049;-74
2023/03/31 03:07:55;;;;;;;6.85;1.75;;;11.20;88.30;;;;;;5011830;28;20034;-75
2023/03/31 03:10:32;;;;;;;9.45;1.95;;;11.10;88.30;;;;;;5005863;28;20524;-74
2023/03/31 03:13:42;;;;;;;6.15;1.60;;;11.10;88.40;;;;;;5004770;28;20038;-74
2023/03/31 03:16:26;;;;;;;3.90;1.30;;;11.10;88.40;;;;;;5007205;28;20042;-76
2023/03/31 03:19:00;;;;;;;4.57;1.20;;;11.00;88.40;;;;;;5009248;28;20029;-75
2023/03/31 03:21:26;;;;;;;5.43;1.40;;;11.00;88.40;;;;;;5004701;28;20479;-75
2023/03/31 03:23:52;;;;;;;3.53;1.48;;;11.00;88.20;;;;;;5005777;28;20480;-76
2023/03/31 03:26:22;;;;;;;5.63;1.45;;;11.00;88.20;;;;;;5012290;28;20100;-75
2023/03/31 03:28:49;;;;;;;4.78;1.70;;;11.00;88.10;;;;;;5011671;28;20017;-75
2023/03/31 03:31:15;;;;;;;3.58;1.30;;;10.90;88.10;;;;;;5006569;28;20042;-75
2023/03/31 03:33:41;;;;;;;4.63;1.10;;;10.90;88.20;;;;;;5014538;28;20389;-75
2023/03/31 03:36:08;;;;;;;4.10;1.20;;;10.80;88.20;;;;;;5002912;28;20110;-75
2023/03/31 03:38:34;;;;;;;2.95;1.20;;;10.80;88.10;;;;;;5004766;28;20054;-76
2023/03/31 03:40:59;;;;;;;2.72;1.05;;;10.80;88.20;;;;;;5009908;28;20069;-76
2023/03/31 03:43:25;;;;;;;5.72;1.55;;;10.90;88.20;;;;;;5003606;28;20034;-77
2023/03/31 03:45:51;;;;;;;2.92;0.98;;;10.80;88.10;;;;;;5008685;28;20021;-75
2023/03/31 03:48:18;;;;;;;3.92;1.30;;;10.80;88.20;;;;;;5005329;28;20077;-76
2023/03/31 03:50:47;;;;;;;3.20;0.98;;;10.80;88.20;;;;;;4992524;28;20038;-75
2023/03/31 03:53:13;;;;;;;2.75;1.08;;;10.80;88.30;;;;;;5004193;28;20089;-75
2023/03/31 03:55:39;;;;;;;5.95;1.23;;;10.70;88.40;;;;;;5008590;28;20030;-75
2023/03/31 03:58:05;;;;;;;1.80;1.25;;;10.60;88.60;;;;;;5002918;28;20032;-75
2023/03/31 04:00:31;;;;;;;2.10;1.10;;;10.60;88.70;;;;;;5009612;28;20393;-75
2023/03/31 04:02:57;;;;;;;4.47;1.17;;;10.60;88.90;;;;;;5008858;28;20042;-75
2023/03/31 04:05:23;;;;;;;2.58;1.45;;;10.60;88.90;;;;;;5004411;28;20081;-76
2023/03/31 04:07:48;;;;;;;3.33;1.20;;;10.60;89.10;;;;;;5004805;28;20393;-75
2023/03/31 04:10:14;;;;;;;1.70;1.13;;;10.60;89.20;;;;;;4995641;28;20552;-76
2023/03/31 04:12:40;;;;;;;3.10;1.00;;;10.60;89.10;;;;;;5002140;28;20402;-75
2023/03/31 04:15:06;;;;;;;3.97;1.45;;;10.60;89.30;;;;;;5008069;28;20482;-75
2023/03/31 04:17:33;;;;;;;5.03;1.20;;;10.50;89.50;;;;;;5006964;28;20288;-75
2023/03/31 04:20:06;;;;;;;3.35;1.38;;;10.50;89.50;;;;;;5015397;28;20487;-75
2023/03/31 04:22:39;;;;;;;3.70;1.45;;;10.40;89.80;;;;;;5006517;28;20041;-75
2023/03/31 04:25:15;;;;;;;3.00;1.55;;;10.40;89.90;;;;;;5007945;28;20454;-76
2023/03/31 04:27:49;;;;;;;3.10;1.33;;;10.40;89.90;;;;;;5011775;28;20040;-75
2023/03/31 04:30:22;;;;;;;4.68;1.70;;;10.50;90.00;;;;;;4998005;28;20109;-75
2023/03/31 04:32:59;;;;;;;3.10;1.20;;;10.50;89.90;;;;;;5013325;28;20812;-75
2023/03/31 04:35:37;;;;;;;3.70;1.45;;;10.50;90.00;;;;;;5026271;28;20041;-75
2023/03/31 04:38:03;;;;;;;4.50;1.63;;;10.50;90.10;;;;;;4998789;28;20046;-75
2023/03/31 04:40:28;;;;;;;3.28;1.55;;;10.50;90.20;;;;;;5010470;28;20045;-75
2023/03/31 04:42:54;;;;;;;4.88;1.75;;;10.50;90.20;;;;;;5009910;28;20044;-75
2023/03/31 04:45:20;;;;;;;5.60;2.13;;;10.50;90.30;;;;;;5009046;28;20033;-75
2023/03/31 04:47:46;;;;;;;8.50;2.10;;;10.50;90.30;;;;;;5010232;28;20169;-75
2023/03/31 04:50:11;;;;;;;9.18;2.45;;;10.50;90.40;;;;;;5006421;28;20363;-75
2023/03/31 04:52:38;;;;;;;9.88;2.13;;;10.60;90.40;;;;;;5006316;28;20037;-75
2023/03/31 04:55:05;;;;;;;8.45;2.55;;;10.60;90.40;;;;;;5009450;28;20072;-75
2023/03/31 04:57:30;;;;;;;10.32;3.30;;;10.60;90.60;;;;;;5006895;28;20042;-74
2023/03/31 04:59:56;;;;;;;9.23;2.95;;;10.60;90.60;;;;;;5007347;28;20374;-75
2023/03/31 05:02:22;;;;;;;8.68;2.47;;;10.70;90.60;;;;;;5009455;28;20044;-75
2023/03/31 05:04:51;;;;;;;10.05;2.85;;;10.70;90.50;;;;;;5008159;28;20049;-75
2023/03/31 05:07:19;;;;;;;12.68;3.28;;;10.70;90.50;;;;;;5007045;28;20111;-75
2023/03/31 05:09:46;;;;;;;12.48;3.22;;;10.80;90.50;;;;;;5025933;28;20516;-76
2023/03/31 05:12:11;;;;;;;15.65;3.15;;;10.90;90.40;;;;;;5004022;28;20482;-76
2023/03/31 05:14:37;;;;;;;11.55;3.13;;;10.90;90.20;;;;;;5004583;28;20034;-75
2023/03/31 05:17:03;;;;;;;15.63;3.35;;;10.90;90.20;;;;;;5007918;28;20050;-76
2023/03/31 05:19:28;;;;;;;13.57;3.97;;;11.00;90.10;;;;;;4996006;28;20026;-76
2023/03/31 05:21:54;;;;;;;13.77;4.60;;;11.00;90.10;;;;;;5005867;28;20438;-76
2023/03/31 05:24:20;;;;;;;16.52;4.05;;;11.10;89.90;;;;;;5000342;28;20304;-74
2023/03/31 05:26:51;;;;;;;13.40;3.50;;;11.10;89.70;;;;;;5007479;28;20037;-75
2023/03/31 05:29:20;;;;;;;20.85;3.88;;;11.10;89.50;;;;;;5001968;28;20029;-75
2023/03/31 05:31:46;;;;;;;13.88;3.70;;;11.10;89.30;;;;;;5007590;28;20041;-76
2023/03/31 05:34:12;;;;;;;24.80;4.65;;;11.20;89.00;;;;;;5005037;28;20215;-74
2023/03/31 05:36:38;;;;;;;14.18;3.50;;;11.30;88.80;;;;;;5003870;28;20044;-73
2023/03/31 05:39:05;;;;;;;17.73;3.80;;;11.30;88.60;;;;;;5006207;28;20033;-73
2023/03/31 05:41:30;;;;;;;17.48;3.92;;;11.40;88.40;;;;;;5007083;28;20042;-74
2023/03/31 05:43:56;;;;;;;17.55;4.22;;;11.40;88.30;;;;;;5004583;28;20032;-73
2023/03/31 05:46:22;;;;;;;13.77;3.88;;;11.40;88.00;;;;;;5004660;28;20049;-73
2023/03/31 05:48:47;;;;;;;15.38;3.60;;;11.50;87.60;;;;;;5004331;28;20045;-73
2023/03/31 05:51:13;;;;;;;22.17;4.60;;;11.50;87.30;;;;;;5003510;28;20351;-73
2023/03/31 05:53:40;;;;;;;17.35;4.03;;;11.60;86.70;;;;;;5002268;28;20025;-73
2023/03/31 05:56:07;;;;;;;19.25;4.63;;;11.60;86.70;;;;;;4995559;28;20041;-73
2023/03/31 05:58:36;;;;;;;16.48;4.53;;;11.60;86.60;;;;;;4998850;28;20021;-74
2023/03/31 06:01:06;;;;;;;26.13;5.15;;;11.70;86.60;;;;;;5000364;28;20042;-74
2023/03/31 06:03:33;;;;;;;20.92;5.68;;;11.70;86.80;;;;;;5004789;28;20063;-74
2023/03/31 06:06:00;;;;;;;19.08;4.90;;;11.70;86.90;;;;;;5001840;28;20030;-73
2023/03/31 06:08:27;;;;;;;17.98;4.05;;;11.70;87.00;;;;;;5007577;28;20026;-73
2023/03/31 06:10:52;;;;;;;16.67;4.13;;;11.70;87.10;;;;;;5015965;28;20033;-74
2023/03/31 06:13:19;;;;;;;16.83;3.92;;;11.70;87.10;;;;;;5007104;28;20148;-74
2023/03/31 06:15:55;;;;;;;22.02;5.03;;;11.70;87.20;;;;;;5001309;28;20489;-74
2023/03/31 06:18:21;;;;;;;20.48;5.30;;;11.70;87.10;;;;;;5016164;28;20023;-74
2023/03/31 06:20:47;;;;;;;23.15;4.68;;;11.70;86.80;;;;;;5005658;28;20155;-73
2023/03/31 06:23:12;;;;;;;15.18;4.53;;;11.80;86.90;;;;;;5020036;28;20381;-74
2023/03/31 06:25:38;;;;;;;17.45;4.28;;;11.80;86.70;;;;;;5001011;28;20019;-74
2023/03/31 06:28:05;;;;;;;20.05;4.97;;;11.80;86.80;;;;;;5002697;28;20033;-74
2023/03/31 06:30:31;;;;;;;20.60;5.28;;;11.70;86.40;;;;;;5002295;28;20022;-74
2023/03/31 06:32:56;;;;;;;22.27;5.40;;;11.80;86.50;;;;;;5001749;28;20030;-73
2023/03/31 06:35:22;;;;;;;26.13;5.35;;;11.80;86.50;;;;;;5000177;28;20054;-74
2023/03/31 06:37:48;;;;;;;21.52;4.97;;;11.80;86.40;;;;;;5002321;28;20061;-74
2023/03/31 06:40:13;;;;;;;19.25;5.53;;;11.90;86.40;;;;;;5005669;28;20045;-74
2023/03/31 06:42:39;;;;;;;22.65;4.85;;;11.90;86.40;;;;;;5003555;28;20049;-73
2023/03/31 06:45:05;;;;;;;23.15;4.95;;;11.90;86.10;;;;;;4995715;28;20022;-74
2023/03/31 06:47:31;;;;;;;19.70;4.93;;;11.90;86.10;;;;;;5001380;28;20042;-74
2023/03/31 06:49:57;;;;;;;23.90;5.32;;;12.00;85.90;;;;;;5005903;28;20034;-73
2023/03/31 06:52:22;;;;;;;24.58;5.10;;;12.10;85.60;;;;;;5004957;28;20068;-73
2023/03/31 06:54:48;;;;;;;22.52;4.97;;;12.00;85.50;;;;;;5014201;28;20034;-74
2023/03/31 06:57:14;;;;;;;19.63;4.78;;;12.10;85.60;;;;;;5000998;28;20037;-73
2023/03/31 06:59:40;;;;;;;25.52;6.28;;;12.10;85.40;;;;;;5004811;28;20029;-78
2023/03/31 07:02:06;;;;;;;21.85;4.97;;;12.10;85.60;;;;;;5003194;28;20050;-74
2023/03/31 07:04:31;;;;;;;26.35;5.57;;;12.10;85.70;;;;;;5004192;28;20026;-74
2023/03/31 07:06:58;;;;;;;29.13;5.93;;;12.10;85.80;;;;;;4997672;28;20026;-74
2023/03/31 07:09:24;;;;;;;19.60;5.70;;;12.10;85.90;;;;;;5002170;28;20121;-74
2023/03/31 07:11:50;;;;;;;20.55;5.05;;;12.10;85.80;;;;;;5004226;28;20129;-74
2023/03/31 07:14:15;;;;;;;34.40;8.02;;;12.10;85.50;;;;;;5005382;28;20382;-74
2023/03/31 07:16:41;;;;;;;24.42;5.63;;;12.20;85.30;;;;;;5003543;28;20047;-74
2023/03/31 07:19:09;;;;;;;19.48;4.60;;;12.20;85.20;;;;;;5002627;28;20045;-74
2023/03/31 07:21:35;;;;;;;27.98;6.50;;;12.20;84.90;;;;;;5019719;28;20486;-73
2023/03/31 07:24:01;;;;;;;21.35;6.78;;;12.20;84.90;;;;;;5006178;28;20542;-73
2023/03/31 07:26:27;;;;;;;24.85;6.07;;;12.20;84.90;;;;;;4982954;28;20121;-74
2023/03/31 07:28:55;;;;;;;21.75;5.72;;;12.20;84.90;;;;;;5001911;28;20114;-73
2023/03/31 07:31:21;;;;;;;23.90;5.35;;;12.20;84.70;;;;;;4996845;28;20046;-73
2023/03/31 07:33:47;;;;;;;19.00;5.18;;;12.10;84.40;;;;;;5003138;28;20274;-73
2023/03/31 07:36:13;;;;;;;26.67;6.45;;;12.20;84.30;;;;;;5013617;28;20043;-73
2023/03/31 07:38:41;;;;;;;24.15;5.85;;;12.20;84.50;;;;;;5009450;28;20120;-72
2023/03/31 07:41:13;;;;;;;23.48;5.55;;;12.20;84.20;;;;;;4995980;28;20402;-72
2023/03/31 07:43:39;;;;;;;23.55;5.05;;;12.30;84.10;;;;;;5000518;28;20108;-73
2023/03/31 07:46:07;;;;;;;24.30;5.63;;;12.20;84.00;;;;;;4986096;28;20084;-73
2023/03/31 07:48:33;;;;;;;24.98;5.47;;;12.40;84.40;;;;;;5006972;28;20049;-73
2023/03/31 07:50:59;;;;;;;24.33;6.07;;;12.40;83.80;;;;;;5020885;28;20116;-73
2023/03/31 07:53:25;;;;;;;26.67;6.15;;;12.40;83.50;;;;;;5006534;28;20030;-73
2023/03/31 07:55:51;;;;;;;21.20;5.35;;;12.50;83.50;;;;;;4984905;28;20030;-73
2023/03/31 07:58:16;;;;;;;21.40;5.35;;;12.50;83.10;;;;;;5010541;28;20026;-73
2023/03/31 08:00:42;;;;;;;23.80;5.60;;;12.50;83.00;;;;;;5006293;28;20038;-73
2023/03/31 08:03:08;;;;;;;21.90;6.88;;;12.50;82.80;;;;;;4997212;28;20192;-73
2023/03/31 08:05:34;;;;;;;27.20;6.32;;;12.60;82.90;;;;;;4999190;28;20370;-74
2023/03/31 08:08:00;;;;;;;19.25;5.07;;;12.50;82.40;;;;;;4997633;28;20386;-74
2023/03/31 08:10:26;;;;;;;26.05;5.35;;;12.50;82.50;;;;;;4995677;28;20030;-73
2023/03/31 08:12:52;;;;;;;22.80;6.47;;;12.50;82.70;;;;;;4996819;28;20022;-73
2023/03/31 08:15:19;;;;;;;19.17;4.82;;;12.40;82.40;;;;;;5010921;28;20477;-74
2023/03/31 08:17:45;;;;;;;22.13;5.78;;;12.40;82.00;;;;;;5009455;28;20035;-73
2023/03/31 08:20:11;;;;;;;19.75;5.03;;;12.40;81.90;;;;;;5008534;28;20091;-74
2023/03/31 08:22:37;;;;;;;21.58;5.90;;;12.40;81.90;;;;;;4991940;28;20406;-73
2023/03/31 08:25:05;;;;;;;18.98;5.22;;;12.50;81.90;;;;;;5005316;28;20726;-73
2023/03/31 08:27:35;;;;;;;17.80;4.90;;;12.60;81.60;;;;;;5005351;28;20259;-74
2023/03/31 08:30:03;;;;;;;22.10;4.45;;;12.50;81.10;;;;;;5006614;28;20033;-74
2023/03/31 08:32:33;;;;;;;22.40;5.72;;;12.50;81.20;;;;;;5006593;28;20120;-72
2023/03/31 08:35:00;;;;;;;21.73;5.20;;;12.60;81.30;;;;;;5006816;28;20034;-73
2023/03/31 08:37:30;;;;;;;22.60;4.55;;;12.60;81.40;;;;;;5007958;28;20042;-72
2023/03/31 08:39:56;;;;;;;16.20;4.20;;;12.60;81.20;;;;;;5009116;28;20021;-72
2023/03/31 08:42:46;;;;;;;18.73;4.70;;;12.60;80.80;;;;;;5011524;28;20418;-73
2023/03/31 08:45:35;;;;;;;17.30;4.18;;;12.60;80.70;;;;;;5001115;28;20079;-72
2023/03/31 08:48:36;;;;;;;18.55;4.60;;;12.60;80.10;;;;;;5009424;28;20089;-72
2023/03/31 08:51:24;;;;;;;17.88;4.25;;;12.60;80.40;;;;;;4994862;28;20041;-73
2023/03/31 08:53:58;;;;;;;17.63;4.75;;;12.70;80.50;;;;;;5006980;28;20020;-72
2023/03/31 08:56:26;;;;;;;17.67;4.20;;;12.60;80.80;;;;;;5003229;28;20050;-73
2023/03/31 08:58:52;;;;;;;23.00;4.72;;;12.60;81.20;;;;;;5006746;28;20064;-73
2023/03/31 09:01:40;;;;;;;19.08;3.80;;;12.60;81.50;;;;;;5006138;28;20048;-72
2023/03/31 09:04:05;;;;;;;16.13;4.30;;;12.60;81.60;;;;;;5000476;28;20033;-73
2023/03/31 09:06:45;;;;;;;24.15;6.25;;;12.60;81.80;;;;;;5005570;28;20266;-73
2023/03/31 09:09:43;;;;;;;26.58;7.57;;;12.60;81.70;;;;;;5001056;28;20109;-72
2023/03/31 09:12:25;;;;;;;22.70;6.18;;;12.60;81.90;;;;;;5006927;28;20069;-72
2023/03/31 09:14:57;;;;;;;25.48;6.85;;;12.60;81.50;;;;;;5007346;28;20088;-72
2023/03/31 09:17:43;;;;;;;29.10;8.48;;;12.60;81.70;;;;;;5009793;28;20057;-73
2023/03/31 09:20:31;;;;;;;25.50;6.20;;;12.50;81.80;;;;;;5003639;28;20056;-73
2023/03/31 09:23:18;;;;;;;28.60;6.88;;;12.60;82.00;;;;;;4998829;28;20133;-72
2023/03/31 09:25:44;;;;;;;23.73;6.18;;;12.60;81.80;;;;;;5012956;28;20026;-71
2023/03/31 09:28:20;;;;;;;27.73;6.15;;;12.60;82.10;;;;;;4993968;28;20807;-73
2023/03/31 09:30:50;;;;;;;22.67;5.22;;;12.60;82.20;;;;;;5022756;28;20109;-72
2023/03/31 09:33:43;;;;;;;25.17;6.47;;;12.60;82.30;;;;;;5008944;28;20061;-73
2023/03/31 09:36:23;;;;;;;27.33;6.10;;;12.60;82.70;;;;;;5011696;28;20485;-73
2023/03/31 09:38:49;;;;;;;25.30;5.95;;;12.70;82.60;;;;;;5015822;28;20056;-72
2023/03/31 09:41:17;;;;;;;23.95;6.30;;;12.60;82.30;;;;;;5014212;28;20054;-71
2023/03/31 09:43:45;;;;;;;23.27;5.40;;;12.70;82.50;;;;;;5014231;28;20033;-72
2023/03/31 09:46:33;;;;;;;26.55;5.55;;;12.80;82.70;;;;;;5012709;28;20485;-72
2023/03/31 09:49:13;;;;;;;18.95;4.60;;;12.80;82.30;;;;;;4970374;28;20035;-73
2023/03/31 09:51:44;;;;;;;26.42;8.65;;;12.80;82.40;;;;;;4973584;28;20376;-72
2023/03/31 09:54:34;;;;;;;23.30;8.32;;;12.60;83.20;;;;;;4975697;28;20113;-73
2023/03/31 09:57:00;;;;;;;22.23;7.07;;;12.60;83.30;;;;;;4969670;28;20030;-73
2023/03/31 09:59:34;;;;;;;25.58;6.45;;;12.50;83.60;;;;;;4976894;28;20097;-74
2023/03/31 10:02:03;;;;;;;24.70;6.38;;;12.60;83.80;;;;;;4968407;28;20495;-73
2023/03/31 10:04:32;;;;;;;20.85;5.47;;;12.60;84.00;;;;;;4962579;28;20034;-74
2023/03/31 10:07:00;;;;;;;21.60;5.88;;;12.60;83.30;;;;;;4964999;28;20471;-73
2023/03/31 10:09:29;;;;;;;27.15;6.15;;;12.60;83.90;;;;;;4966002;28;20030;-72
2023/03/31 10:12:15;;;;;;;24.33;5.97;;;12.60;84.30;;;;;;4964092;28;20109;-72
2023/03/31 10:14:44;;;;;;;27.85;5.45;;;12.60;84.10;;;;;;4961452;28;20026;-74
2023/03/31 10:17:19;;;;;;;25.02;5.13;;;12.60;84.30;;;;;;4962416;28;20541;-74
2023/03/31 10:19:57;;;;;;;25.67;5.85;;;12.70;84.00;;;;;;4957255;28;20039;-74
2023/03/31 10:22:30;;;;;;;24.17;5.03;;;12.70;84.10;;;;;;4953253;28;20050;-73
2023/03/31 10:25:17;;;;;;;28.08;5.75;;;12.80;84.10;;;;;;4968418;28;20078;-72
2023/03/31 10:27:51;;;;;;;21.98;6.20;;;12.70;84.50;;;;;;4954387;28;20031;-72
2023/03/31 10:30:23;;;;;;;21.23;5.20;;;12.70;84.70;;;;;;4954119;28;20054;-72
2023/03/31 10:32:50;;;;;;;20.58;5.15;;;12.70;85.00;;;;;;4959499;28;20042;-73
2023/03/31 10:35:28;;;;;;;19.25;4.45;;;12.60;84.50;;;;;;4954340;28;20058;-72
2023/03/31 10:38:05;;;;;;;18.73;5.00;;;12.60;84.80;;;;;;4954595;28;20069;-72
2023/03/31 10:40:33;;;;;;;20.83;4.18;;;12.60;85.00;;;;;;4955479;28;20035;-72
2023/03/31 10:43:20;;;;;;;16.85;4.78;;;12.60;85.10;;;;;;4956548;28;20054;-72
2023/03/31 10:45:53;;;;;;;16.42;3.63;;;12.70;84.70;;;;;;4953006;28;20031;-71
2023/03/31 10:48:28;;;;;;;16.27;3.88;;;12.70;83.70;;;;;;4963704;28;20040;-72
2023/03/31 10:50:59;;;;;;;17.83;3.83;;;12.80;84.00;;;;;;4963984;28;20071;-71
2023/03/31 10:53:25;;;;;;;20.52;4.40;;;13.00;83.20;;;;;;4962323;28;20502;-73
2023/03/31 10:56:00;;;;;;;19.85;4.85;;;13.10;83.10;;;;;;4964223;28;20066;-72
2023/03/31 10:58:50;;;;;;;14.98;3.95;;;13.10;82.30;;;;;;4965106;28;20041;-72
2023/03/31 11:01:37;;;;;;;14.13;3.63;;;13.10;82.70;;;;;;4965201;28;20105;-72
2023/03/31 11:04:11;;;;;;;19.77;4.28;;;13.00;82.70;;;;;;4967565;28;20266;-71
2023/03/31 11:07:02;;;;;;;19.80;3.90;;;13.00;83.40;;;;;;4960331;28;20039;-71
2023/03/31 11:09:51;;;;;;;16.85;4.63;;;12.90;83.60;;;;;;4964835;28;20053;-72
2023/03/31 11:12:32;;;;;;;14.13;3.70;;;12.80;84.10;;;;;;4967082;28;20042;-71
2023/03/31 11:15:12;;;;;;;15.52;3.80;;;12.80;84.50;;;;;;4964850;28;20027;-72
2023/03/31 11:18:13;;;;;;;12.93;3.15;;;12.80;84.50;;;;;;4964366;28;20537;-71
2023/03/31 11:21:13;;;;;;;15.07;3.90;;;12.70;84.70;;;;;;4984778;28;20026;-72
2023/03/31 11:23:48;;;;;;;13.95;3.35;;;12.70;85.00;;;;;;4952621;28;20039;-71
2023/03/31 11:26:17;;;;;;;;;;;12.80;84.80;;;;;;4971705;28;20124;-71
2023/03/31 11:28:49;;;;;;;14.45;3.63;;;12.70;84.10;;;;;;4985505;28;20269;-72
2023/03/31 11:31:22;;;;;;;15.00;4.07;;;12.70;84.80;;;;;;4969691;28;20051;-72
2023/03/31 11:33:48;;;;;;;15.05;3.85;;;12.70;84.90;;;;;;4971032;28;20315;-72
2023/03/31 11:37:16;;;;;;;15.48;3.63;;;12.60;84.60;;;;;;4971133;28;20177;-72
2023/03/31 11:40:17;;;;;;;19.58;3.78;;;12.60;84.70;;;;;;4934053;28;20524;-74
2023/03/31 11:42:57;;;;;;;15.93;3.53;;;12.60;85.20;;;;;;4849432;29;20247;-72
2023/03/31 11:45:30;;;;;;;11.75;3.00;;;12.60;84.90;;;;;;4971049;28;20038;-72
2023/03/31 11:48:02;;;;;;;13.23;3.50;;;12.50;84.00;;;;;;4988870;28;20042;-72
2023/03/31 11:50:37;;;;;;;11.05;3.20;;;12.60;84.30;;;;;;5010961;28;20042;-72
2023/03/31 11:53:10;;;;;;;9.18;2.45;;;12.60;84.00;;;;;;5005606;28;20155;-72
2023/03/31 11:55:37;;;;;;;12.00;2.53;;;12.60;83.20;;;;;;5019251;28;20614;-71
2023/03/31 11:58:34;;;;;;;9.38;2.22;;;12.60;82.80;;;;;;5004981;28;20022;-71
2023/03/31 12:01:11;;;;;;;11.20;2.63;;;12.60;83.00;;;;;;5022454;28;20510;-71
2023/03/31 12:04:05;;;;;;;8.55;1.90;;;12.60;82.70;;;;;;5005967;28;20018;-71
2023/03/31 12:06:38;;;;;;;6.32;1.85;;;12.60;82.00;;;;;;5013757;28;20548;-72
2023/03/31 12:09:32;;;;;;;5.10;1.90;;;12.60;82.10;;;;;;5003662;28;20040;-71
2023/03/31 12:12:23;;;;;;;8.20;2.00;;;12.60;81.80;;;;;;5002125;28;20045;-71
2023/03/31 12:15:12;;;;;;;6.72;1.70;;;12.60;81.50;;;;;;5011793;28;20108;-72
2023/03/31 12:17:42;;;;;;;8.35;1.67;;;12.70;81.50;;;;;;5013697;28;20121;-72
2023/03/31 12:20:23;;;;;;;7.68;1.85;;;12.80;81.10;;;;;;5011487;28;20033;-72
2023/03/31 12:22:49;;;;;;;7.47;1.90;;;12.80;80.40;;;;;;5009726;28;20068;-73
2023/03/31 12:25:21;;;;;;;9.15;1.80;;;12.90;81.10;;;;;;5003278;28;20058;-72
2023/03/31 12:27:49;;;;;;;6.32;2.08;;;12.90;81.20;;;;;;5014058;28;20022;-72
2023/03/31 12:30:33;;;;;;;6.10;2.08;;;12.80;81.80;;;;;;5001145;28;20070;-72
2023/03/31 12:33:10;;;;;;;10.07;1.88;;;12.80;81.90;;;;;;5014399;28;20038;-72
2023/03/31 12:35:57;;;;;;;6.00;1.77;;;12.60;82.20;;;;;;5013542;28;20034;-72
2023/03/31 12:39:05;;;;;;;6.68;1.77;;;12.50;83.30;;;;;;4997028;28;20030;-72
2023/03/31 12:41:58;;;;;;;8.57;2.33;;;12.60;84.20;;;;;;4994542;28;20712;-74
2023/03/31 12:44:30;;;;;;;8.10;2.25;;;12.50;83.10;;;;;;5003788;28;20030;-74
2023/03/31 12:46:59;;;;;;;6.88;1.88;;;12.60;83.20;;;;;;5019792;28;20046;-74
2023/03/31 12:50:02;;;;;;;8.57;1.85;;;12.60;82.40;;;;;;5001882;28;20034;-72
2023/03/31 12:52:31;;;;;;;6.47;1.88;;;12.50;82.60;;;;;;5017138;28;20038;-72
2023/03/31 12:55:24;;;;;;;7.35;2.25;;;12.60;82.70;;;;;;5002221;28;20064;-72
2023/03/31 12:57:50;;;;;;;9.85;1.70;;;12.60;82.10;;;;;;5003111;28;20556;-73
2023/03/31 13:00:19;;;;;;;7.25;2.15;;;12.60;82.20;;;;;;5007410;28;20042;-73
2023/03/31 13:02:46;;;;;;;12.57;2.70;;;12.60;82.10;;;;;;5003717;28;20577;-73
2023/03/31 13:05:37;;;;;;;10.68;2.10;;;12.50;81.80;;;;;;5005867;28;20137;-72
2023/03/31 13:08:04;;;;;;;10.40;2.45;;;12.50;82.20;;;;;;4998371;28;20042;-72
2023/03/31 13:10:31;;;;;;;9.35;2.28;;;12.50;82.20;;;;;;5004887;28;20038;-72